Current | Forecast
Updated: 4:00 PM JST on March 29, 2017
Observed at Sendai Airport, Japan
Temperature 46°F
Windchill 42°F
Humidity 66%
Dew Point 36°F
Wind NNW at 9 mph
Pressure 30.15 in (Steady)
Conditions Scattered Clouds
Visibility 6.2 miles
UV 1 out of 16
Clouds (FEW) : 3000 ft
Scattered Clouds (SCT) : 5000 ft
Yesterday's Maximum 50°F
Yesterday's Minimum 34°F approx.
Yesterday's Heating Degree Days 23 approx.
Sunrise5:28 AM JST
Sunset5:57 PM JST
Moon Rise6:15 AM JST
Moon Set7:14 PM JST
Moon PhaseMoon Phase
New Moon
Raw METARMETAR RJSS 290700Z 33008KT 310V020 9999 FEW030 SCT050 08/02 Q1021


Monday
. High: 84° F.
Tuesday
. High: 84° F.
Wednesday
. High: 75° F.
Thursday
. High: 82° F.
Friday
. High: 86° F.
Saturday
. High: 77° F.
Sunday
. High: 75° F.
Monday
. High: 73° F.

Units: English | Metric

Find the Weather for any City, State or Zipcode, or Country:

U.S. State List | Severe Weather | Tropical Storms | Ski Conditions
United States | Canada | Central America | South America | Asia | Europe | Australia | Africa | Islands

Weather Underground

© Copyright 2017
The Weather Company, LLC